Terminal Aerodrome Forecast
Issued by NWS Mt. Holly, NJ

Home | Current Version | Previous Version | Text Only | Print | Product List | Glossary On
Versions: 1 2 3 4 5 6 7 8 9 10 11 12 13 14 15 16 17 18
434
FTUS41 KPHI 140345 AAA
TAFTTN
TAF AMD
KTTN 140345Z 1404/1424 24005KT 1SM -SN OVC025
      TEMPO 1404/1406 1/2SM SN OVC015
     FM140600 20005KT 2SM -SN OVC015
     FM141300 32009G19KT P6SM BKN035
     FM142200 31009KT P6SM SCT250=

USA.gov is the U.S. government's official web portal to all federal, state and local government web resources and services.